Stanhope, United Kingdom
Current Conditions -  °F | °C
As of 7:20 PM on Sunday 21 Dec 2014 (Local Time) from EGNT Reporting Station
Few Clouds Few Clouds  
Wind Chill: 55°   Ceiling: Unl
Heat Index: 55°   Visibility: 6mi
Dew Point: 48°   Wind: 31mph
Humidity: 77%   Direction: 260°W
Pressure: 29.65"   Gusts: 43mph
Location:  54.75°N, 2.02°W
Report Text: EGNT 211920Z 26027G37KT 9999 FEW020 13/09 Q1004
Loading
Personal Weather Stations






























Interactive Weather Map New forecast layout! Learn more

10-Day Weather Forecast

Advertisements
Track Severe Weather on mobile